Time;durP1;ratioP1;P1;durP2;ratioP2;P2;SDS_P1;SDS_P2;PMS_P1;PMS_P2;Temp;Humidity;BMP_temperature;BMP_pressure;BME280_temperature;BME280_humidity;BME280_pressure;Samples;Min_cycle;Max_cycle;Signal;HPM_P1;HPM_P2
2022/06/30 00:00:57;;;;;;;9.38;4.22;;;21.40;99.90;;;;;;5013658;28;20045;-84
2022/06/30 00:03:23;;;;;;;8.13;4.10;;;21.30;99.90;;;;;;4996068;28;20077;-84
2022/06/30 00:05:49;;;;;;;7.75;4.35;;;21.20;99.90;;;;;;5030256;28;20068;-84
2022/06/30 00:08:14;;;;;;;8.25;4.32;;;21.20;99.90;;;;;;5030408;28;20030;-84
2022/06/30 00:10:40;;;;;;;7.20;3.83;;;21.20;99.90;;;;;;5012992;28;20060;-84
2022/06/30 00:13:06;;;;;;;8.75;4.50;;;21.10;99.90;;;;;;4996846;28;20410;-84
2022/06/30 00:15:35;;;;;;;8.15;4.22;;;21.00;99.90;;;;;;5012841;28;20034;-84
2022/06/30 00:18:01;;;;;;;7.10;4.22;;;21.00;99.90;;;;;;4997297;28;20037;-84
2022/06/30 00:20:27;;;;;;;7.90;4.15;;;20.90;99.90;;;;;;5013174;28;20034;-84
2022/06/30 00:22:52;;;;;;;8.00;4.72;;;20.90;99.90;;;;;;5012950;28;20120;-84
2022/06/30 00:25:18;;;;;;;9.70;4.68;;;20.90;99.90;;;;;;5013062;28;20041;-84
2022/06/30 00:27:44;;;;;;;8.93;4.78;;;20.80;99.90;;;;;;5012710;28;20048;-84
2022/06/30 00:30:10;;;;;;;8.77;4.97;;;20.80;99.90;;;;;;4996944;28;20029;-84
2022/06/30 00:32:35;;;;;;;7.82;4.55;;;20.80;99.90;;;;;;5012510;28;20040;-84
2022/06/30 00:35:01;;;;;;;7.82;5.10;;;20.80;99.90;;;;;;5012030;28;20033;-83
2022/06/30 00:37:27;;;;;;;7.72;4.82;;;20.70;99.90;;;;;;5013562;28;20136;-84
2022/06/30 00:39:53;;;;;;;8.80;5.13;;;20.70;99.90;;;;;;5012415;28;20073;-83
2022/06/30 00:42:19;;;;;;;9.30;4.90;;;20.60;99.90;;;;;;5013213;28;20080;-84
2022/06/30 00:44:45;;;;;;;8.35;5.05;;;20.60;99.90;;;;;;5030291;28;20042;-84
2022/06/30 00:47:10;;;;;;;8.32;4.93;;;20.50;99.90;;;;;;5012817;28;20049;-84
2022/06/30 00:49:37;;;;;;;9.38;4.88;;;20.50;99.90;;;;;;5013187;28;20034;-84
2022/06/30 00:52:06;;;;;;;9.88;5.05;;;20.50;99.90;;;;;;5012631;28;20033;-84
2022/06/30 00:54:33;;;;;;;7.85;4.97;;;20.50;99.90;;;;;;4996029;28;20041;-84
2022/06/30 00:57:00;;;;;;;9.55;5.30;;;20.40;99.90;;;;;;5013111;28;20048;-84
2022/06/30 00:59:27;;;;;;;8.60;5.10;;;20.40;99.90;;;;;;4996318;28;20068;-83
2022/06/30 01:01:54;;;;;;;10.65;4.53;;;20.40;99.90;;;;;;4997104;28;20508;-84
2022/06/30 01:04:20;;;;;;;8.63;4.82;;;20.30;99.90;;;;;;4995117;28;20595;-84
2022/06/30 01:06:46;;;;;;;9.02;4.97;;;20.30;99.90;;;;;;5012962;28;20519;-84
2022/06/30 01:12:41;;;;;;;9.25;4.90;;;20.30;99.90;;;;;;5012695;28;20120;-84
2022/06/30 01:14:43;;;;;;;8.63;4.90;;;20.20;99.90;;;;;;5027733;28;20625;-84
2022/06/30 01:17:10;;;;;;;9.80;5.07;;;20.20;99.90;;;;;;4995270;28;20116;-84
2022/06/30 01:19:35;;;;;;;9.43;5.03;;;20.10;99.90;;;;;;5028348;28;20044;-83
2022/06/30 01:22:02;;;;;;;8.32;4.75;;;20.10;99.90;;;;;;4996144;28;20034;-84
2022/06/30 01:24:28;;;;;;;7.57;4.30;;;20.00;99.90;;;;;;4995424;28;20094;-84
2022/06/30 01:26:57;;;;;;;8.35;4.80;;;20.00;99.90;;;;;;5012356;28;20124;-84
2022/06/30 01:29:23;;;;;;;7.55;4.57;;;20.00;99.90;;;;;;4996251;28;20283;-84
2022/06/30 01:31:49;;;;;;;8.50;4.47;;;20.00;99.90;;;;;;4995150;28;20064;-83
2022/06/30 01:34:15;;;;;;;8.00;4.80;;;19.90;99.90;;;;;;5011699;28;20037;-83
2022/06/30 01:36:42;;;;;;;8.52;4.90;;;20.00;99.90;;;;;;5029403;28;20045;-83
2022/06/30 01:39:07;;;;;;;8.50;4.13;;;20.00;99.90;;;;;;4995749;28;20661;-83
2022/06/30 01:41:33;;;;;;;7.65;4.30;;;19.90;99.90;;;;;;5029276;28;20053;-83
2022/06/30 01:43:59;;;;;;;8.95;4.70;;;19.90;99.90;;;;;;5011917;28;20060;-84
2022/06/30 01:46:24;;;;;;;8.00;4.63;;;19.90;99.90;;;;;;4997395;28;20301;-83
2022/06/30 01:48:50;;;;;;;7.03;4.45;;;19.90;99.90;;;;;;5016016;28;20036;-84
2022/06/30 01:51:16;;;;;;;9.07;4.65;;;19.90;99.90;;;;;;5015932;28;20041;-84
2022/06/30 01:53:41;;;;;;;8.63;4.78;;;19.90;99.90;;;;;;5015528;28;20461;-83
2022/06/30 01:56:07;;;;;;;8.43;4.50;;;19.90;99.90;;;;;;5015680;28;20053;-83
2022/06/30 01:58:32;;;;;;;8.45;4.90;;;19.80;99.90;;;;;;4999144;28;20045;-84
2022/06/30 02:00:58;;;;;;;7.80;4.60;;;19.80;99.90;;;;;;5015852;28;20164;-83
2022/06/30 02:03:24;;;;;;;9.43;5.07;;;19.80;99.90;;;;;;5014951;28;20041;-84
2022/06/30 02:05:50;;;;;;;8.68;5.20;;;19.80;99.90;;;;;;5015396;28;20037;-84
2022/06/30 02:08:15;;;;;;;8.75;5.07;;;19.80;99.90;;;;;;5015792;28;20384;-84
2022/06/30 02:10:41;;;;;;;10.40;4.60;;;19.80;99.90;;;;;;5032286;28;20136;-84
2022/06/30 02:13:06;;;;;;;8.02;4.78;;;19.70;99.90;;;;;;5015555;28;20569;-83
2022/06/30 02:15:33;;;;;;;13.55;5.07;;;19.70;99.90;;;;;;4998937;28;20069;-84
2022/06/30 02:18:04;;;;;;;8.45;5.10;;;19.70;99.90;;;;;;5015522;28;20041;-83
2022/06/30 02:20:29;;;;;;;7.88;4.75;;;19.70;99.90;;;;;;5015522;28;20401;-83
2022/06/30 02:23:00;;;;;;;10.98;5.10;;;19.60;99.90;;;;;;5015802;28;20495;-84
2022/06/30 02:25:27;;;;;;;8.88;4.70;;;19.60;99.90;;;;;;4998354;28;20561;-84
2022/06/30 02:27:54;;;;;;;8.77;4.70;;;19.60;99.90;;;;;;5015002;28;20503;-84
2022/06/30 02:30:20;;;;;;;10.00;4.97;;;19.60;99.90;;;;;;5015178;28;20045;-83
2022/06/30 02:32:46;;;;;;;9.35;5.40;;;19.50;99.90;;;;;;5014869;28;20045;-84
2022/06/30 02:35:12;;;;;;;8.35;5.22;;;19.50;99.90;;;;;;5030899;28;20618;-83
2022/06/30 02:37:38;;;;;;;9.57;5.43;;;19.50;99.90;;;;;;5015642;28;20053;-84
2022/06/30 02:40:04;;;;;;;9.90;5.57;;;19.50;99.90;;;;;;4998520;28;20095;-83
2022/06/30 02:42:30;;;;;;;8.57;5.65;;;19.40;99.90;;;;;;5031851;28;20519;-83
2022/06/30 02:44:55;;;;;;;10.98;5.75;;;19.40;99.90;;;;;;5014177;28;20127;-84
2022/06/30 02:47:28;;;;;;;9.10;6.00;;;19.30;99.90;;;;;;5015087;28;20391;-83
2022/06/30 02:49:53;;;;;;;8.90;6.30;;;19.30;99.90;;;;;;5015225;28;20042;-83
2022/06/30 02:52:19;;;;;;;9.88;6.63;;;19.30;99.90;;;;;;4998073;28;20037;-83
2022/06/30 02:54:44;;;;;;;9.57;6.30;;;19.30;99.90;;;;;;5014902;28;20063;-84
2022/06/30 02:57:10;;;;;;;9.88;6.10;;;19.30;99.90;;;;;;5030379;28;20120;-83
2022/06/30 02:59:35;;;;;;;9.52;6.18;;;19.30;99.90;;;;;;5014330;28;20128;-83
2022/06/30 03:02:01;;;;;;;9.95;5.90;;;19.30;99.90;;;;;;5032126;28;20514;-83
2022/06/30 03:04:27;;;;;;;10.65;6.20;;;19.30;99.90;;;;;;5013821;28;20096;-84
2022/06/30 03:06:55;;;;;;;9.60;5.93;;;19.20;99.90;;;;;;5014457;28;20037;-83
2022/06/30 03:09:22;;;;;;;9.70;6.00;;;19.20;99.90;;;;;;5014268;28;20172;-83
2022/06/30 03:11:48;;;;;;;9.23;6.30;;;19.20;99.90;;;;;;5014107;28;20037;-83
2022/06/30 03:14:13;;;;;;;9.93;6.10;;;19.20;99.90;;;;;;5014554;28;20164;-83
2022/06/30 03:16:39;;;;;;;9.77;5.03;;;19.20;99.90;;;;;;5030602;28;20040;-83
2022/06/30 03:19:04;;;;;;;9.40;5.18;;;19.20;99.90;;;;;;5014481;28;20029;-83
2022/06/30 03:21:30;;;;;;;7.85;4.93;;;19.20;99.90;;;;;;5014152;28;20048;-83
2022/06/30 03:23:56;;;;;;;8.70;4.68;;;19.20;99.90;;;;;;5013764;28;20049;-84
2022/06/30 03:26:21;;;;;;;8.93;5.00;;;19.10;99.90;;;;;;4997557;28;20497;-84
2022/06/30 03:28:47;;;;;;;7.82;4.78;;;19.10;99.90;;;;;;4997688;28;20075;-83
2022/06/30 03:31:12;;;;;;;8.82;5.00;;;19.10;99.90;;;;;;5014562;28;20419;-83
2022/06/30 03:33:38;;;;;;;8.63;5.00;;;19.10;99.90;;;;;;5013962;28;20044;-83
2022/06/30 03:36:04;;;;;;;8.80;5.00;;;19.10;99.90;;;;;;5013315;28;20037;-83
2022/06/30 03:38:30;;;;;;;9.10;5.28;;;19.00;99.90;;;;;;5030885;28;20485;-83
2022/06/30 03:40:55;;;;;;;8.68;4.70;;;19.00;99.90;;;;;;5014036;28;20534;-83
2022/06/30 03:43:21;;;;;;;8.90;5.25;;;19.00;99.90;;;;;;5030315;28;20072;-83
2022/06/30 03:45:47;;;;;;;9.65;4.97;;;19.00;99.90;;;;;;5012508;28;20038;-83
2022/06/30 03:48:12;;;;;;;8.55;4.32;;;19.00;99.90;;;;;;5012653;28;20033;-83
2022/06/30 03:50:38;;;;;;;8.82;4.55;;;19.00;99.90;;;;;;5030845;28;20553;-84
2022/06/30 03:53:03;;;;;;;9.07;4.90;;;19.00;99.90;;;;;;4996165;28;20802;-83
2022/06/30 03:55:29;;;;;;;9.77;5.10;;;19.00;99.90;;;;;;5012811;28;20422;-83
2022/06/30 03:57:55;;;;;;;8.30;5.00;;;19.00;99.90;;;;;;5030055;28;20048;-83
2022/06/30 04:00:22;;;;;;;8.38;5.10;;;19.00;99.90;;;;;;5029812;28;20071;-83
2022/06/30 04:02:48;;;;;;;8.88;5.25;;;19.00;99.90;;;;;;4997731;28;20077;-83
2022/06/30 04:05:14;;;;;;;9.60;5.03;;;19.00;99.90;;;;;;4996407;28;20079;-83
2022/06/30 04:07:41;;;;;;;8.77;5.75;;;19.00;99.90;;;;;;5012926;28;20042;-83
2022/06/30 04:10:08;;;;;;;8.38;5.00;;;19.00;99.90;;;;;;5012497;28;20059;-83
2022/06/30 04:12:34;;;;;;;9.27;5.45;;;19.00;99.90;;;;;;4997321;28;20443;-83
2022/06/30 04:15:00;;;;;;;8.98;5.32;;;19.00;99.90;;;;;;5013081;28;20506;-83
2022/06/30 04:17:25;;;;;;;8.70;5.40;;;18.90;99.90;;;;;;5013395;28;20041;-83
2022/06/30 04:19:51;;;;;;;13.13;5.30;;;19.00;99.90;;;;;;5012737;28;20045;-83
2022/06/30 04:22:16;;;;;;;8.07;4.80;;;19.00;99.90;;;;;;4997333;28;20140;-83
2022/06/30 04:24:42;;;;;;;9.38;5.35;;;19.00;99.90;;;;;;5012817;28;20045;-83
2022/06/30 04:27:07;;;;;;;8.57;5.30;;;19.00;99.90;;;;;;5012670;28;20525;-83
2022/06/30 04:29:33;;;;;;;8.23;5.03;;;19.00;99.90;;;;;;5012907;28;20044;-83
2022/06/30 04:34:43;;;;;;;8.50;5.85;;;19.00;99.90;;;;;;5028731;28;20045;-83
2022/06/30 04:37:08;;;;;;;8.27;5.30;;;19.00;99.90;;;;;;5012347;28;20494;-83
2022/06/30 04:39:34;;;;;;;8.88;5.32;;;19.00;99.90;;;;;;5013233;28;20398;-83
2022/06/30 04:41:59;;;;;;;8.98;5.57;;;19.00;99.90;;;;;;5012672;28;20511;-83
2022/06/30 04:44:25;;;;;;;8.75;5.55;;;19.00;99.90;;;;;;5012458;28;20481;-84
2022/06/30 04:46:50;;;;;;;8.85;5.40;;;19.10;99.90;;;;;;5028738;28;20038;-83
2022/06/30 04:49:16;;;;;;;8.95;5.90;;;19.10;99.90;;;;;;5012238;28;20518;-83
2022/06/30 04:51:42;;;;;;;10.40;6.13;;;19.20;99.90;;;;;;5013342;28;20056;-83
2022/06/30 04:54:07;;;;;;;12.05;7.40;;;19.20;99.90;;;;;;5012397;28;20038;-83
2022/06/30 04:56:33;;;;;;;11.63;8.75;;;19.20;99.90;;;;;;4992249;28;20034;-83
2022/06/30 04:58:58;;;;;;;14.65;11.73;;;19.20;99.90;;;;;;5022023;28;20052;-83
2022/06/30 05:01:25;;;;;;;17.48;11.50;;;19.30;99.90;;;;;;4991576;28;20052;-83
2022/06/30 05:03:50;;;;;;;14.55;11.88;;;19.30;99.90;;;;;;5021405;28;20662;-83
2022/06/30 05:06:16;;;;;;;15.70;11.90;;;19.20;99.90;;;;;;5006467;28;20593;-83
2022/06/30 05:08:42;;;;;;;16.05;11.80;;;19.30;99.90;;;;;;4995861;28;20607;-83
2022/06/30 05:11:08;;;;;;;15.63;11.73;;;19.30;99.90;;;;;;5012328;28;20037;-83
2022/06/30 05:13:34;;;;;;;13.85;10.55;;;19.30;99.90;;;;;;5028883;28;20125;-84
2022/06/30 05:15:59;;;;;;;15.57;11.60;;;19.30;99.90;;;;;;5012124;28;20034;-83
2022/06/30 05:18:26;;;;;;;14.32;9.88;;;19.30;99.90;;;;;;5011790;28;20041;-83
2022/06/30 05:20:52;;;;;;;12.98;9.63;;;19.30;99.90;;;;;;4997207;28;20033;-83
2022/06/30 05:23:18;;;;;;;12.73;9.50;;;19.30;99.90;;;;;;5016072;28;20048;-84
2022/06/30 05:28:28;;;;;;;13.55;8.70;;;19.40;99.90;;;;;;5032549;28;20054;-84
2022/06/30 05:30:55;;;;;;;10.60;7.95;;;19.50;99.90;;;;;;5015739;28;20033;-83
2022/06/30 05:33:21;;;;;;;12.57;7.22;;;19.50;99.90;;;;;;5016754;28;20046;-83
2022/06/30 05:35:52;;;;;;;10.48;7.53;;;19.60;99.90;;;;;;4998639;28;20045;-83
2022/06/30 05:38:19;;;;;;;10.07;7.13;;;19.60;99.90;;;;;;4999379;28;20054;-83
2022/06/30 05:40:47;;;;;;;10.40;6.30;;;19.70;99.90;;;;;;5015490;28;20088;-83
2022/06/30 05:43:14;;;;;;;10.27;6.40;;;19.70;99.90;;;;;;5016576;28;20513;-83
2022/06/30 05:45:41;;;;;;;9.30;6.25;;;19.80;99.90;;;;;;4999676;28;20048;-84
2022/06/30 05:48:07;;;;;;;8.52;5.88;;;19.90;99.90;;;;;;4998998;28;20041;-84
2022/06/30 05:50:33;;;;;;;9.35;6.32;;;20.00;99.90;;;;;;5032861;28;20140;-83
2022/06/30 05:52:58;;;;;;;10.73;7.07;;;20.00;99.90;;;;;;4999211;28;20087;-83
2022/06/30 05:55:24;;;;;;;8.45;6.18;;;20.10;99.90;;;;;;5015073;28;20419;-84
2022/06/30 05:57:58;;;;;;;9.02;5.93;;;20.10;99.90;;;;;;4999439;28;20453;-84
2022/06/30 06:00:27;;;;;;;8.77;5.97;;;20.20;99.90;;;;;;4988157;28;20096;-84
2022/06/30 06:02:53;;;;;;;9.38;6.82;;;20.20;99.90;;;;;;4996618;28;20048;-83
2022/06/30 06:05:19;;;;;;;11.52;6.78;;;20.30;99.90;;;;;;5014951;28;20046;-84
2022/06/30 06:07:44;;;;;;;10.88;6.57;;;20.30;99.90;;;;;;5015192;28;20160;-83
2022/06/30 06:10:13;;;;;;;12.35;6.93;;;20.40;99.90;;;;;;5014579;28;20084;-84
2022/06/30 06:12:39;;;;;;;10.68;7.00;;;20.50;99.90;;;;;;4999390;28;20129;-84
2022/06/30 06:15:05;;;;;;;10.32;6.22;;;20.50;99.90;;;;;;5015421;28;20140;-84
2022/06/30 06:17:31;;;;;;;10.63;6.80;;;20.60;99.90;;;;;;4998323;28;20029;-83
2022/06/30 06:19:57;;;;;;;11.15;6.45;;;20.70;99.90;;;;;;5015211;28;20042;-84
2022/06/30 06:22:23;;;;;;;11.43;6.20;;;20.70;99.90;;;;;;5032495;28;20450;-84
2022/06/30 06:24:49;;;;;;;9.57;6.20;;;20.70;99.90;;;;;;5015022;28;20487;-84
2022/06/30 06:27:14;;;;;;;8.50;6.50;;;20.80;99.90;;;;;;5014472;28;20038;-84
2022/06/30 06:29:40;;;;;;;13.13;6.60;;;20.80;99.90;;;;;;5015205;28;20044;-84
2022/06/30 06:32:06;;;;;;;10.35;7.05;;;20.90;99.90;;;;;;5014660;28;20033;-84
2022/06/30 06:34:31;;;;;;;10.25;6.60;;;20.90;99.90;;;;;;5014500;28;20111;-83
2022/06/30 06:36:57;;;;;;;10.43;7.10;;;21.00;99.90;;;;;;5014220;28;20033;-84
2022/06/30 06:39:23;;;;;;;10.15;6.32;;;21.10;99.90;;;;;;5031575;28;20056;-84
2022/06/30 06:41:48;;;;;;;10.20;7.28;;;21.10;99.90;;;;;;5014980;28;20077;-84
2022/06/30 06:44:14;;;;;;;10.27;6.75;;;21.20;99.90;;;;;;5015261;28;20569;-84
2022/06/30 06:46:39;;;;;;;8.80;6.30;;;21.30;99.90;;;;;;5032155;28;20140;-84
2022/06/30 06:49:07;;;;;;;11.10;6.85;;;21.30;99.90;;;;;;5013645;28;20079;-84
2022/06/30 06:51:33;;;;;;;10.27;6.45;;;21.40;99.90;;;;;;5014071;28;20490;-83
2022/06/30 06:53:58;;;;;;;9.52;6.60;;;21.50;99.90;;;;;;5014788;28;20514;-84
2022/06/30 06:56:25;;;;;;;9.55;6.82;;;21.60;99.90;;;;;;5014789;28;20053;-84
2022/06/30 06:58:50;;;;;;;10.90;7.20;;;21.70;99.90;;;;;;5014820;28;20352;-84
2022/06/30 07:01:16;;;;;;;10.27;7.05;;;21.70;99.90;;;;;;5014040;28;20571;-84
2022/06/30 07:03:42;;;;;;;10.18;6.50;;;21.80;99.90;;;;;;5015283;28;20091;-84
2022/06/30 07:06:08;;;;;;;10.13;6.53;;;21.90;99.90;;;;;;5030366;28;20529;-84
2022/06/30 07:08:34;;;;;;;12.20;7.90;;;22.00;99.90;;;;;;5013648;28;20486;-84
2022/06/30 07:11:00;;;;;;;10.15;7.00;;;22.00;99.90;;;;;;5014519;28;20041;-84
2022/06/30 07:13:27;;;;;;;11.30;7.57;;;22.10;99.90;;;;;;5032043;28;20044;-84
2022/06/30 07:15:52;;;;;;;10.18;7.53;;;22.10;99.90;;;;;;5030679;28;20033;-84
2022/06/30 07:18:18;;;;;;;11.00;7.10;;;22.20;99.90;;;;;;5013565;28;20481;-84
2022/06/30 07:20:44;;;;;;;10.00;7.53;;;22.30;99.90;;;;;;5030055;28;20041;-84
2022/06/30 07:23:10;;;;;;;10.25;7.32;;;22.30;99.90;;;;;;5014479;28;20172;-84
2022/06/30 07:25:35;;;;;;;13.43;7.53;;;22.40;99.90;;;;;;4998104;28;20036;-84
2022/06/30 07:28:02;;;;;;;11.38;7.88;;;22.50;99.90;;;;;;5030358;28;20037;-84
2022/06/30 07:30:28;;;;;;;10.52;7.70;;;22.60;99.90;;;;;;5013372;28;20109;-84
2022/06/30 07:32:54;;;;;;;10.15;7.28;;;22.60;99.90;;;;;;5014367;28;20073;-84
2022/06/30 07:35:20;;;;;;;10.05;8.00;;;22.70;99.90;;;;;;5013203;28;20638;-84
2022/06/30 07:37:46;;;;;;;11.95;8.43;;;22.80;99.90;;;;;;5012947;28;20048;-84
2022/06/30 07:40:12;;;;;;;10.93;8.50;;;22.80;99.90;;;;;;5013375;28;20414;-84
2022/06/30 07:42:38;;;;;;;11.25;7.97;;;22.90;99.90;;;;;;4997897;28;20045;-84
2022/06/30 07:45:05;;;;;;;10.07;8.50;;;23.00;99.90;;;;;;5012890;28;20048;-85
2022/06/30 07:47:31;;;;;;;12.80;7.13;;;23.10;99.90;;;;;;5013153;28;20091;-84
2022/06/30 07:49:56;;;;;;;11.75;8.30;;;23.20;99.90;;;;;;5012503;28;20041;-85
2022/06/30 07:52:22;;;;;;;11.07;8.60;;;23.20;99.90;;;;;;5012384;28;20045;-84
2022/06/30 07:54:48;;;;;;;12.93;8.75;;;23.30;99.90;;;;;;5014330;28;20038;-84
2022/06/30 07:57:13;;;;;;;10.88;8.50;;;23.40;99.90;;;;;;5030786;28;20487;-84
2022/06/30 07:59:39;;;;;;;10.95;9.30;;;23.40;99.90;;;;;;5029533;28;20454;-85
2022/06/30 08:02:06;;;;;;;11.95;8.48;;;23.50;99.90;;;;;;5013503;28;20048;-85
2022/06/30 08:04:33;;;;;;;10.88;9.02;;;23.60;99.90;;;;;;4997141;28;20048;-84
2022/06/30 08:07:01;;;;;;;14.63;9.40;;;23.60;99.90;;;;;;4997143;28;20033;-85
2022/06/30 08:09:27;;;;;;;10.85;9.07;;;23.70;99.90;;;;;;5012404;28;20446;-84
2022/06/30 08:11:54;;;;;;;11.57;8.88;;;23.80;99.90;;;;;;4997614;28;20044;-84
2022/06/30 08:14:21;;;;;;;12.75;9.02;;;23.80;99.90;;;;;;5014203;28;20402;-84
2022/06/30 08:16:47;;;;;;;12.95;9.05;;;24.00;99.90;;;;;;5029166;28;20049;-84
2022/06/30 08:19:12;;;;;;;11.00;9.77;;;24.00;99.90;;;;;;4995913;28;20061;-85
2022/06/30 08:21:38;;;;;;;15.57;10.43;;;24.10;99.90;;;;;;4996529;28;20047;-85
2022/06/30 08:24:04;;;;;;;12.80;10.13;;;24.20;99.90;;;;;;5013282;28;20625;-85
2022/06/30 08:26:30;;;;;;;11.98;10.05;;;24.20;99.90;;;;;;5029922;28;20454;-85
2022/06/30 08:28:56;;;;;;;10.93;9.05;;;24.30;99.90;;;;;;4995554;28;20093;-84
2022/06/30 08:31:22;;;;;;;12.10;9.52;;;24.40;99.90;;;;;;5013587;28;20471;-84
2022/06/30 08:33:50;;;;;;;12.40;10.32;;;24.50;99.90;;;;;;5029225;28;20058;-84
2022/06/30 08:36:16;;;;;;;14.02;10.10;;;24.50;99.90;;;;;;4996799;28;20041;-85
2022/06/30 08:38:42;;;;;;;11.27;9.23;;;24.60;99.90;;;;;;5011724;28;20041;-85
2022/06/30 08:43:53;;;;;;;13.20;9.50;;;24.80;99.90;;;;;;5030781;28;20081;-85
2022/06/30 08:46:22;;;;;;;13.50;11.20;;;24.90;99.90;;;;;;4996101;28;20056;-85
2022/06/30 08:48:48;;;;;;;13.38;10.70;;;24.90;99.90;;;;;;5029505;28;20159;-85
2022/06/30 08:51:15;;;;;;;12.48;9.65;;;25.00;99.90;;;;;;5030113;28;20108;-84
2022/06/30 08:54:01;;;;;;;12.25;10.93;;;25.00;99.90;;;;;;5013041;28;20051;-85
2022/06/30 08:56:32;;;;;;;12.43;10.32;;;25.10;99.90;;;;;;5011874;28;20041;-85
2022/06/30 08:58:58;;;;;;;12.15;10.82;;;25.20;99.90;;;;;;5025157;28;20103;-85
2022/06/30 09:01:28;;;;;;;12.70;10.13;;;25.30;99.90;;;;;;5009585;28;20038;-85
2022/06/30 09:03:57;;;;;;;12.45;10.82;;;25.30;99.90;;;;;;4995807;28;20045;-85
2022/06/30 09:06:23;;;;;;;13.43;10.50;;;25.40;99.90;;;;;;4996688;28;20044;-85
2022/06/30 09:08:50;;;;;;;12.90;10.90;;;25.50;99.90;;;;;;5027494;28;20049;-85
2022/06/30 09:11:16;;;;;;;12.65;10.48;;;25.50;99.90;;;;;;4995751;28;20106;-84
2022/06/30 09:13:48;;;;;;;10.77;9.40;;;25.60;99.90;;;;;;5012827;28;20398;-85
2022/06/30 09:16:15;;;;;;;12.55;10.55;;;25.70;99.90;;;;;;5012821;28;20469;-85
2022/06/30 09:18:40;;;;;;;16.75;10.63;;;25.70;99.90;;;;;;5011873;28;20071;-85
2022/06/30 09:21:18;;;;;;;12.00;9.85;;;25.80;99.90;;;;;;5012019;28;20498;-85
2022/06/30 09:23:45;;;;;;;11.25;10.05;;;25.90;99.90;;;;;;4996292;28;20092;-85
2022/06/30 09:26:22;;;;;;;12.55;11.23;;;25.90;99.90;;;;;;4995929;28;20030;-85
2022/06/30 09:28:51;;;;;;;12.70;11.35;;;26.00;99.90;;;;;;4995838;28;20491;-84
2022/06/30 09:31:42;;;;;;;12.75;11.23;;;26.00;99.90;;;;;;5027595;28;20036;-85
2022/06/30 09:34:16;;;;;;;13.70;11.88;;;26.00;99.90;;;;;;5013031;28;20041;-85
2022/06/30 09:36:42;;;;;;;17.77;11.85;;;26.00;99.90;;;;;;5011537;28;20045;-85
2022/06/30 09:39:11;;;;;;;13.90;12.02;;;26.10;99.90;;;;;;4995144;28;20081;-85
2022/06/30 09:41:41;;;;;;;13.93;12.45;;;26.10;99.90;;;;;;5028876;28;20141;-84
2022/06/30 09:44:37;;;;;;;12.82;11.45;;;26.10;99.90;;;;;;5012195;28;20049;-84
2022/06/30 09:47:08;;;;;;;12.80;11.35;;;26.20;99.90;;;;;;5000122;28;20678;-84
2022/06/30 09:49:40;;;;;;;14.93;11.73;;;26.30;99.90;;;;;;5010567;28;20041;-84
2022/06/30 09:52:20;;;;;;;13.45;11.68;;;26.30;99.90;;;;;;5028302;28;20025;-84
2022/06/30 09:54:56;;;;;;;15.15;11.85;;;26.40;99.90;;;;;;5011102;28;20046;-84
2022/06/30 09:57:24;;;;;;;14.95;13.27;;;26.50;99.90;;;;;;5006667;28;20487;-84
2022/06/30 10:00:09;;;;;;;12.82;10.80;;;26.50;99.90;;;;;;4995186;28;20132;-84
2022/06/30 10:02:37;;;;;;;12.68;11.38;;;26.60;99.90;;;;;;5028268;28;20046;-84
2022/06/30 10:05:04;;;;;;;12.80;10.25;;;26.50;99.90;;;;;;5028284;28;20047;-84
2022/06/30 10:07:35;;;;;;;14.05;11.93;;;26.60;99.90;;;;;;4996280;28;20037;-84
2022/06/30 10:10:06;;;;;;;12.85;11.30;;;26.60;99.90;;;;;;5013793;28;20041;-84
2022/06/30 10:12:32;;;;;;;13.33;11.23;;;26.60;99.90;;;;;;5031662;28;20076;-84
2022/06/30 10:14:58;;;;;;;14.93;11.48;;;26.50;99.90;;;;;;5033270;28;20402;-84
2022/06/30 10:17:26;;;;;;;13.57;11.55;;;26.50;99.90;;;;;;5015494;28;20121;-84
2022/06/30 10:19:53;;;;;;;13.60;10.88;;;26.60;99.90;;;;;;5032490;28;20069;-85
2022/06/30 10:22:22;;;;;;;12.43;9.27;;;26.80;99.90;;;;;;5015019;28;20056;-85
2022/06/30 10:24:48;;;;;;;16.13;9.32;;;26.90;99.90;;;;;;5031989;28;20045;-85
2022/06/30 10:27:16;;;;;;;12.15;9.23;;;26.80;99.90;;;;;;5014933;28;20033;-85
2022/06/30 10:29:47;;;;;;;12.52;10.25;;;27.00;99.90;;;;;;5014419;28;20084;-84
2022/06/30 10:32:21;;;;;;;12.57;10.48;;;27.00;99.90;;;;;;5032241;28;20025;-85
2022/06/30 10:35:06;;;;;;;11.85;8.77;;;27.10;99.90;;;;;;5015835;28;20051;-84
2022/06/30 10:37:40;;;;;;;9.77;8.05;;;27.20;99.90;;;;;;5015082;28;20152;-84
2022/06/30 10:40:42;;;;;;;9.65;6.28;;;27.40;99.90;;;;;;5014738;28;20055;-85
2022/06/30 10:43:07;;;;;;;9.15;5.55;;;27.40;94.10;;;;;;5015161;28;20076;-85
2022/06/30 10:45:37;;;;;;;11.55;6.15;;;27.40;94.70;;;;;;5014499;28;20041;-85
2022/06/30 10:48:08;;;;;;;9.30;5.78;;;27.40;93.00;;;;;;5014925;28;20128;-85
2022/06/30 10:50:41;;;;;;;11.52;7.95;;;27.50;94.10;;;;;;5013451;28;20079;-85
2022/06/30 10:53:10;;;;;;;10.05;7.32;;;27.50;95.70;;;;;;5015393;28;20049;-85
2022/06/30 10:55:52;;;;;;;11.30;6.78;;;27.60;95.50;;;;;;5014033;28;20083;-84
2022/06/30 10:58:19;;;;;;;74.20;11.07;;;27.70;95.90;;;;;;5002459;28;20033;-85
2022/06/30 11:01:04;;;;;;;10.07;7.38;;;27.80;98.20;;;;;;5012602;28;20049;-85
2022/06/30 11:03:34;;;;;;;10.27;6.18;;;27.90;99.90;;;;;;5011634;28;20037;-85
2022/06/30 11:06:18;;;;;;;9.18;6.70;;;28.00;97.70;;;;;;4979011;28;20046;-85
2022/06/30 11:08:50;;;;;;;9.82;6.65;;;28.10;95.90;;;;;;5024342;28;20045;-86
2022/06/30 11:11:22;;;;;;;9.88;6.13;;;28.20;97.90;;;;;;5010832;28;20488;-85
2022/06/30 11:13:49;;;;;;;11.80;7.07;;;28.20;96.90;;;;;;5028102;28;20065;-85
2022/06/30 11:16:19;;;;;;;9.18;5.70;;;28.30;94.60;;;;;;5011839;28;20045;-85
2022/06/30 11:18:46;;;;;;;9.68;6.05;;;28.30;99.60;;;;;;4978329;28;20525;-85
2022/06/30 11:21:12;;;;;;;11.38;5.43;;;28.40;94.00;;;;;;5026671;28;20121;-85
2022/06/30 11:23:44;;;;;;;8.23;4.60;;;28.50;89.10;;;;;;5026391;28;20042;-85
2022/06/30 11:28:56;;;;;;;11.73;4.32;;;28.40;87.30;;;;;;5029968;28;20428;-85
2022/06/30 11:31:42;;;;;;;9.70;4.82;;;28.40;88.00;;;;;;5011932;28;20117;-85
2022/06/30 11:34:15;;;;;;;7.45;3.78;;;28.40;86.40;;;;;;5014769;28;20428;-85
2022/06/30 11:36:43;;;;;;;10.00;4.00;;;28.40;85.60;;;;;;4998172;28;20085;-85
2022/06/30 11:39:11;;;;;;;11.32;4.60;;;28.40;88.80;;;;;;5013328;28;20041;-85
2022/06/30 11:41:57;;;;;;;11.20;5.35;;;28.50;80.20;;;;;;4997319;28;20041;-85
2022/06/30 11:44:38;;;;;;;8.85;4.93;;;28.60;85.60;;;;;;5013148;28;20046;-85
2022/06/30 11:47:12;;;;;;;9.63;4.68;;;28.60;81.20;;;;;;5031203;28;20126;-85
2022/06/30 11:49:57;;;;;;;10.77;5.40;;;28.70;79.90;;;;;;5012627;28;20061;-85
2022/06/30 11:52:29;;;;;;;18.05;5.55;;;28.70;80.30;;;;;;4997046;28;20045;-85
2022/06/30 11:55:01;;;;;;;9.40;4.53;;;28.70;83.10;;;;;;5014130;28;20045;-85
2022/06/30 11:57:29;;;;;;;11.38;5.10;;;28.80;83.50;;;;;;4994566;28;20065;-85
2022/06/30 12:00:00;;;;;;;8.27;5.07;;;28.90;88.80;;;;;;4993498;28;20049;-85
2022/06/30 12:02:26;;;;;;;10.35;4.93;;;29.00;88.40;;;;;;5012028;28;20041;-85
2022/06/30 12:04:54;;;;;;;9.73;5.03;;;29.20;88.30;;;;;;5011293;28;20050;-85
2022/06/30 12:07:21;;;;;;;10.07;5.68;;;29.40;91.20;;;;;;5006154;28;20094;-85
2022/06/30 12:09:47;;;;;;;10.70;5.45;;;29.60;90.70;;;;;;5019140;28;20045;-85
2022/06/30 12:12:13;;;;;;;10.13;5.00;;;29.80;85.30;;;;;;5010404;28;20026;-86
2022/06/30 12:14:39;;;;;;;8.95;4.82;;;30.00;86.60;;;;;;5013728;28;20059;-86
2022/06/30 12:17:07;;;;;;;8.68;4.90;;;30.20;85.70;;;;;;5013628;28;20079;-86
2022/06/30 12:19:33;;;;;;;10.20;4.97;;;30.50;84.90;;;;;;5030233;28;20056;-85
2022/06/30 12:22:00;;;;;;;9.43;4.70;;;30.60;83.80;;;;;;5030684;28;20045;-86
2022/06/30 12:24:26;;;;;;;10.57;4.90;;;30.80;86.50;;;;;;5030975;28;20065;-86
2022/06/30 12:26:57;;;;;;;9.82;4.55;;;30.80;83.10;;;;;;5013982;28;20564;-86
2022/06/30 12:29:25;;;;;;;8.57;4.55;;;30.80;79.10;;;;;;4993897;28;20447;-86
2022/06/30 12:32:03;;;;;;;7.22;4.07;;;30.80;80.40;;;;;;5028729;28;20041;-86
2022/06/30 12:34:29;;;;;;;10.73;5.05;;;30.80;79.20;;;;;;5028479;28;20033;-86
2022/06/30 12:37:02;;;;;;;8.90;4.80;;;30.90;77.00;;;;;;5031093;28;20087;-86
2022/06/30 12:39:30;;;;;;;8.90;4.75;;;30.80;69.50;;;;;;4996280;28;20033;-86
2022/06/30 12:42:07;;;;;;;10.23;4.40;;;30.70;71.70;;;;;;4995595;28;20042;-86
2022/06/30 12:44:35;;;;;;;10.02;3.92;;;30.60;73.50;;;;;;4996665;28;20119;-86
2022/06/30 12:47:09;;;;;;;10.32;4.15;;;30.60;66.90;;;;;;5029082;28;20033;-86
2022/06/30 12:49:36;;;;;;;14.82;4.47;;;30.50;64.20;;;;;;5013206;28;20087;-86
2022/06/30 12:52:16;;;;;;;10.35;3.70;;;30.30;65.90;;;;;;5011562;28;20108;-86
2022/06/30 12:54:56;;;;;;;12.90;4.00;;;30.40;70.30;;;;;;5013001;28;20099;-85
2022/06/30 12:57:23;;;;;;;11.07;4.28;;;30.50;75.00;;;;;;5012919;28;20038;-86